Gifu, Japan

9:24 PM JST on September 21, 2014 (GMT +0900)
IU611BU73 | Change Station
CLOSE
Current Station
Personal Weather Station
Location: Kasugai, Aichi
Elevation: 52 ft
Nearby Weather Stations

Elev 52 ft 35.23 °N, 136.96 °E | Updated 2 seconds ago

Partly Cloudy
Partly Cloudy
71.6 °F
Feels Like 75 °F
N
4.0
Wind Variable Wind from SSE
Gusts 4.0 mph

Today
High -- | Low -- °F
--% Chance of Precip.
Yesterday
High -- | Low -- °F
Precip. -- in
5:39 AM 5:52 PM
Waning Crescent, 7% visible
Pressure 30.04 in
Visibility 6.2 miles
Clouds Few 3000 ft
Heat Index 75 °F
Dew Point 61 °F
Humidity 69%
Rainfall 0.00 in
Snow Depth Not available.
UV 0.0 out of 12
Pollen Not available.
Air Quality Not available.
Flu Activity Not available.
METAR RJGG 211200Z 17008KT 9999 FEW030 BKN/// 21/18 Q1017 NOSIG

More Conditions Fewer Conditions

Pressure 30.04 in
Visibility 6.2 miles
Clouds Few 3000 ft
Heat Index 75 °F
Dew Point 61 °F
Humidity 69%
Rainfall 0.00 in
Snow Depth Not available.
UV 0.0 out of 12
Pollen Not available.
Air Quality Not available.
Flu Activity Not available.
METAR RJGG 211200Z 17008KT 9999 FEW030 BKN/// 21/18 Q1017 NOSIG

More Conditions Fewer Conditions

10-Day Weather Forecast

Almanac

Astronomy

Sep. 21, 2014 Rise Set
Actual Time 5:39 AM JST 5:52 PM JST
Civil Twilight 5:14 AM JST 6:17 PM JST
Nautical Twilight 4:44 AM JST 6:47 PM JST
Astronomical Twilight 4:14 AM JST 7:17 PM JST
Moon 2:44 AM JST 4:03 PM JST
Length of Visible Light 13h 03m
Length of Day
12h 12m
Tomorrow will be 2m 13s shorter.
Waning Crescent, 7% of the Moon is Illuminated
Today
Waning Crescent
Sep 24
New
Oct 1
First Quarter
Oct 8
Full
Oct 15
Last Quarter

Yesterday's Extremes

Country Highs Country Lows

Community

WunderPhotos

Upload Photos

1,755,126 photos uploaded!

Nearby

Snow Depth

Not available.

Earthquake Activity

City Distance Mag. Time & Date
No recent earthquake activity has been reported nearby.
Minimum magnitude displayed is 2.5.

Coastal Water Temperatures

Place Temperature
No Stations Reporting

Nearby Weather Stations